地図

経路データ

SID SEASON NUMBER BASIN SUBBASIN NAME ISO_TIME NATURE LAT LON WMO_WIND WMO_PRES WMO_AGENCY TRACK_TYPE DIST2LAND LANDFALL IFLAG USA_AGENCY USA_ATCF_ID USA_LAT USA_LON USA_RECORD USA_STATUS USA_WIND USA_PRES USA_SSHS USA_R34_NE USA_R34_SE USA_R34_SW USA_R34_NW USA_R50_NE USA_R50_SE USA_R50_SW USA_R50_NW USA_R64_NE USA_R64_SE USA_R64_SW USA_R64_NW USA_POCI USA_ROCI USA_RMW USA_EYE TOKYO_LAT TOKYO_LON TOKYO_GRADE TOKYO_WIND TOKYO_PRES TOKYO_R50_DIR TOKYO_R50_LONG TOKYO_R50_SHORT TOKYO_R30_DIR TOKYO_R30_LONG TOKYO_R30_SHORT TOKYO_LAND CMA_LAT CMA_LON CMA_CAT CMA_WIND CMA_PRES HKO_LAT HKO_LON HKO_CAT HKO_WIND HKO_PRES NEWDELHI_LAT NEWDELHI_LON NEWDELHI_GRADE NEWDELHI_WIND NEWDELHI_PRES NEWDELHI_CI NEWDELHI_DP NEWDELHI_POCI REUNION_LAT REUNION_LON REUNION_TYPE REUNION_WIND REUNION_PRES REUNION_TNUM REUNION_CI REUNION_RMW REUNION_R34_NE REUNION_R34_SE REUNION_R34_SW REUNION_R34_NW REUNION_R50_NE REUNION_R50_SE REUNION_R50_SW REUNION_R50_NW REUNION_R64_NE REUNION_R64_SE REUNION_R64_SW REUNION_R64_NW BOM_LAT BOM_LON BOM_TYPE BOM_WIND BOM_PRES BOM_TNUM BOM_CI BOM_RMW BOM_R34_NE BOM_R34_SE BOM_R34_SW BOM_R34_NW BOM_R50_NE BOM_R50_SE BOM_R50_SW BOM_R50_NW BOM_R64_NE BOM_R64_SE BOM_R64_SW BOM_R64_NW BOM_ROCI BOM_POCI BOM_EYE BOM_POS_METHOD BOM_PRES_METHOD NADI_LAT NADI_LON NADI_CAT NADI_WIND NADI_PRES WELLINGTON_LAT WELLINGTON_LON WELLINGTON_WIND WELLINGTON_PRES DS824_LAT DS824_LON DS824_STAGE DS824_WIND DS824_PRES TD9636_LAT TD9636_LON TD9636_STAGE TD9636_WIND TD9636_PRES TD9635_LAT TD9635_LON TD9635_WIND TD9635_PRES TD9635_ROCI NEUMANN_LAT NEUMANN_LON NEUMANN_CLASS NEUMANN_WIND NEUMANN_PRES MLC_LAT MLC_LON MLC_CLASS MLC_WIND MLC_PRES USA_GUST BOM_GUST BOM_GUST_PER REUNION_GUST REUNION_GUST_PER USA_SEAHGT USA_SEARAD_NE USA_SEARAD_SE USA_SEARAD_SW USA_SEARAD_NW STORM_SPEED STORM_DIR
1972091N05158 1972 29 WP MM NOT_NAMED 1972-03-31 09:00:00 TS 4.54997 158.385 spur-other 1127 1122 ______________ -1 6 298
1972091N05158 1972 29 WP MM NOT_NAMED 1972-03-31 12:00:00 TS 4.70000 158.100 spur-other 1124 1113 __O___________ -1 4.70000 158.100 1 29 1000 6 293
1972091N05158 1972 29 WP MM NOT_NAMED 1972-03-31 15:00:00 TS 4.80000 157.792 spur-other 1113 1100 __P___________ -1 4.79253 157.793 1 29 1000 6 288
1972091N05158 1972 29 WP MM NOT_NAMED 1972-03-31 18:00:00 TS 4.90000 157.500 spur-other 1103 1095 __O___________ -1 4.90000 157.500 1 29 1000 6 293
1972091N05158 1972 29 WP MM NOT_NAMED 1972-03-31 21:00:00 TS 5.03499 157.235 spur-other 1095 1095 __P___________ -1 5.03499 157.235 1 29 1000 6 301
1972091N05158 1972 29 WP MM NOT_NAMED 1972-04-01 00:00:00 TS 5.20000 157.000 spur-other 1102 1097 __O___________ -1 5.20000 157.000 1 29 1000 6 308
1972091N05158 1972 29 WP MM NOT_NAMED 1972-04-01 03:00:00 TS 5.38499 156.792 spur-other 1110 1104 __P___________ -1 5.38499 156.792 1 29 1000 6 315
1972091N05158 1972 29 WP MM NOT_NAMED 1972-04-01 06:00:00 TS 5.60000 156.600 spur-other 1118 1118 __O___________ -1 5.60000 156.600 1 29 1000 6 318
1972091N05158 1972 29 WP MM NOT_NAMED 1972-04-01 09:00:00 TS 5.85001 156.378 spur-other 1136 1131 __P___________ -1 5.85001 156.378 1 26 1001 6 321
1972091N05158 1972 29 WP MM NOT_NAMED 1972-04-01 12:00:00 TS 6.10000 156.200 spur-other 1145 1145 __O___________ -1 6.10000 156.200 1 23 1002 5 331
1972091N05158 1972 29 WP MM NOT_NAMED 1972-04-01 15:00:00 TS 6.29999 156.127 spur-other 1160 1160 __P___________ -1 6.29999 156.127 1 23 1002 4 347
1972091N05158 1972 29 WP MM NOT_NAMED 1972-04-01 18:00:00 TS 6.50000 156.100 spur-other 1180 1180 __O___________ -1 6.50000 156.100 1 23 1002 5 344
1972091N05158 1972 29 WP MM NOT_NAMED 1972-04-01 21:00:00 TS 6.75747 155.998 spur-other 1206 1206 __P___________ -1 6.75747 155.998 1 21 1003 5 349
1972091N05158 1972 29 WP MM NOT_NAMED 1972-04-02 00:00:00 TS 7.00000 156.000 spur-other 1225 1225 __O___________ -1 7.00000 156.000 0 19 1004 5 32
1972091N05158 1972 29 WP MM NOT_NAMED 1972-04-02 03:00:00 TS 7.17255 156.255 spur-other 1261 1261 __P___________ -1 7.17255 156.255 0 19 1004 7 63
1972091N05158 1972 29 WP MM NOT_NAMED 1972-04-02 06:00:00 TS 7.30000 156.600 spur-other 1285 1285 __O___________ -1 7.30000 156.600 0 19 1004 6 67
1972091N05158 1972 29 WP MM NOT_NAMED 1972-04-02 09:00:00 TS 7.41494 156.843 spur-other 1305 1305 __P___________ -1 7.41494 156.843 0 19 1004 5 68
1972091N05158 1972 29 WP MM NOT_NAMED 1972-04-02 12:00:00 TS 7.50000 157.100 spur-other 1330 1330 __O___________ -1 7.50000 157.100 0 19 1004 6 77
1972091N05158 1972 29 WP MM NOT_NAMED 1972-04-02 15:00:00 TS 7.55754 157.450 spur-other 1361 1361 __P___________ -1 7.55759 157.427 0 1004 7 82
1972091N05158 1972 29 WP MM NOT_NAMED 1972-04-02 18:00:00 TS 7.60000 157.800 spur-other 1378 1378 __O___________ -1 7.60000 157.800 0 1004 6 81
1972091N05158 1972 29 WP MM NOT_NAMED 1972-04-02 21:00:00 TS 7.64996 158.065 spur-other 1395 ______________ -1 0 5 79

デジタル台風データ・検索

IBTrACS Databaseについて

本データベースは、米国NOAAが公開する1842年以降の世界の熱帯低気圧のベストトラックデータアーカイブInternational Best Track Archive for Climate Stewardship (IBTrACS)を、ウェブで閲覧しやすい形式に変換したものです。

最終更新日:2021-10-21